createdAt,value
2023-02-15T00:03:44.267Z,-1.20
2023-02-15T00:09:05.913Z,-1.30
2023-02-15T00:14:27.733Z,-1.30
2023-02-15T00:19:49.218Z,-1.40
2023-02-15T00:25:10.572Z,-1.50
2023-02-15T00:30:32.993Z,-1.50
2023-02-15T00:35:58.771Z,-1.50
2023-02-15T00:41:20.204Z,-1.60
2023-02-15T00:46:41.576Z,-1.60
2023-02-15T00:52:04.331Z,-1.70
2023-02-15T00:57:25.883Z,-1.70
2023-02-15T01:02:47.563Z,-1.70
2023-02-15T01:08:09.731Z,-1.70
2023-02-15T01:13:33.655Z,-1.80
2023-02-15T01:18:58.515Z,-1.80
2023-02-15T01:24:19.695Z,-1.90
2023-02-15T01:29:41.151Z,-1.90
2023-02-15T01:35:03.253Z,-2.00
2023-02-15T01:40:25.641Z,-2.00
2023-02-15T01:45:49.976Z,-2.00
2023-02-15T01:51:12.436Z,-2.10
2023-02-15T01:56:36.755Z,-2.10
2023-02-15T02:02:00.709Z,-2.20
2023-02-15T02:07:27.943Z,-2.20
2023-02-15T02:12:51.491Z,-2.20
2023-02-15T02:18:25.186Z,-2.20
2023-02-15T02:24:05.074Z,-2.20
2023-02-15T02:29:51.600Z,-2.20
2023-02-15T02:35:29.951Z,-2.20
2023-02-15T02:41:18.199Z,-2.30
2023-02-15T02:47:14.394Z,-2.30
2023-02-15T02:52:43.355Z,-2.30
2023-02-15T02:58:07.241Z,-2.30
2023-02-15T03:03:42.400Z,-2.40
2023-02-15T03:09:23.852Z,-2.40
2023-02-15T03:14:49.294Z,-2.40
2023-02-15T03:20:35.633Z,-2.50
2023-02-15T03:26:04.347Z,-2.60
2023-02-15T03:31:32.616Z,-2.60
2023-02-15T03:37:23.081Z,-2.60
2023-02-15T03:42:46.237Z,-2.60
2023-02-15T03:48:09.459Z,-2.60
2023-02-15T03:53:31.288Z,-2.70
2023-02-15T03:59:11.411Z,-2.70
2023-02-15T04:04:34.930Z,-2.70
2023-02-15T04:10:14.636Z,-2.70
2023-02-15T04:15:54.695Z,-2.70
2023-02-15T04:21:35.265Z,-2.70
2023-02-15T04:26:57.083Z,-2.70
2023-02-15T04:32:18.629Z,-2.70
2023-02-15T04:37:41.574Z,-2.80
2023-02-15T04:43:03.076Z,-2.80
2023-02-15T04:48:24.675Z,-2.80
2023-02-15T04:53:46.362Z,-2.80
2023-02-15T04:59:07.856Z,-2.90
2023-02-15T05:04:29.571Z,-2.90
2023-02-15T05:09:50.976Z,-3.00
2023-02-15T05:15:12.771Z,-3.00
2023-02-15T05:20:34.457Z,-3.00
2023-02-15T05:26:13.963Z,-3.00
2023-02-15T05:31:36.676Z,-3.00
2023-02-15T05:36:58.543Z,-3.00
2023-02-15T05:42:20.026Z,-3.10
2023-02-15T05:47:41.324Z,-3.10
2023-02-15T05:53:02.516Z,-3.10
2023-02-15T05:58:23.946Z,-3.10
2023-02-15T06:03:46.079Z,-3.10
2023-02-15T06:09:07.329Z,-3.10
2023-02-15T06:14:29.062Z,-3.00
2023-02-15T06:19:50.436Z,-3.00
2023-02-15T06:25:12.381Z,-3.00
2023-02-15T06:30:34.091Z,-3.00
2023-02-15T06:35:55.774Z,-3.00
2023-02-15T06:41:17.317Z,-3.00
2023-02-15T06:46:38.908Z,-3.00
2023-02-15T06:52:00.340Z,-3.00
2023-02-15T06:57:21.806Z,-3.00
2023-02-15T07:02:43.181Z,-3.00
2023-02-15T07:08:04.784Z,-3.00
2023-02-15T07:13:26.173Z,-2.90
2023-02-15T07:18:47.914Z,-2.90
2023-02-15T07:24:09.424Z,-2.80
2023-02-15T07:29:30.913Z,-2.80
2023-02-15T07:34:52.356Z,-2.70
2023-02-15T07:40:13.915Z,-2.60
2023-02-15T07:45:35.225Z,-2.50
2023-02-15T07:50:59.937Z,-2.40
2023-02-15T07:56:21.234Z,-2.10
2023-02-15T08:01:42.782Z,-1.60
2023-02-15T08:07:05.319Z,-1.10
2023-02-15T08:12:30.114Z,-0.60
2023-02-15T08:17:51.697Z,-0.30
2023-02-15T08:23:13.231Z,0.20
2023-02-15T08:28:34.493Z,0.60
2023-02-15T08:33:57.873Z,0.90
2023-02-15T08:39:19.208Z,1.30
2023-02-15T08:44:40.715Z,1.70
2023-02-15T08:50:02.301Z,2.00
2023-02-15T08:55:23.993Z,2.40
2023-02-15T09:00:47.456Z,2.80
2023-02-15T09:06:09.156Z,3.30
2023-02-15T09:11:38.359Z,3.60
2023-02-15T09:16:59.637Z,3.90
2023-02-15T09:22:21.080Z,4.30
2023-02-15T09:27:42.733Z,4.70
2023-02-15T09:33:04.056Z,5.20
2023-02-15T09:38:25.720Z,5.60
2023-02-15T09:44:10.846Z,6.10
2023-02-15T09:49:38.100Z,6.50
2023-02-15T09:55:05.680Z,7.00
2023-02-15T10:00:51.282Z,7.50
2023-02-15T10:06:27.101Z,8.00
2023-02-15T10:12:21.733Z,8.40
2023-02-15T10:18:00.353Z,8.80
2023-02-15T10:23:40.124Z,9.30
2023-02-15T10:29:24.232Z,9.60
2023-02-15T10:35:01.578Z,10.10
2023-02-15T10:40:47.677Z,10.40
2023-02-15T10:46:18.365Z,10.80
2023-02-15T10:52:28.815Z,11.40
2023-02-15T10:58:03.831Z,11.70
2023-02-15T11:04:14.130Z,12.10
2023-02-15T11:09:48.027Z,12.60
2023-02-15T11:15:16.682Z,13.00
2023-02-15T11:20:52.083Z,13.10
2023-02-15T11:26:35.074Z,12.90
2023-02-15T11:32:01.901Z,12.70
2023-02-15T11:37:50.233Z,12.80
2023-02-15T11:43:24.083Z,12.60
2023-02-15T11:48:45.719Z,12.70
2023-02-15T11:54:09.524Z,12.90
2023-02-15T11:59:36.048Z,12.80
2023-02-15T12:05:14.490Z,13.10
2023-02-15T12:10:54.428Z,13.40
2023-02-15T12:16:15.994Z,13.30
2023-02-15T12:21:42.663Z,13.40
2023-02-15T12:27:07.080Z,13.70
2023-02-15T12:32:36.006Z,13.70
2023-02-15T12:38:05.118Z,13.80
2023-02-15T12:43:34.032Z,13.90
2023-02-15T12:49:09.307Z,14.30
2023-02-15T12:54:39.757Z,14.40
2023-02-15T13:00:04.806Z,14.30
2023-02-15T13:05:33.690Z,14.60
2023-02-15T13:11:00.240Z,14.40
2023-02-15T13:16:34.462Z,14.10
2023-02-15T13:21:57.527Z,14.00
2023-02-15T13:27:22.306Z,14.10
2023-02-15T13:32:44.555Z,14.00
2023-02-15T13:38:28.069Z,14.10
2023-02-15T13:44:01.432Z,14.20
2023-02-15T13:49:51.996Z,14.20
2023-02-15T13:55:28.801Z,14.70
2023-02-15T14:01:25.507Z,15.00
2023-02-15T14:06:49.800Z,15.10
2023-02-15T14:12:36.327Z,15.30
2023-02-15T14:18:34.905Z,15.10
2023-02-15T14:24:14.845Z,15.20
2023-02-15T14:29:48.747Z,15.30
2023-02-15T14:35:29.297Z,15.60
2023-02-15T14:41:06.244Z,15.60
2023-02-15T14:46:33.772Z,15.50
2023-02-15T14:51:58.032Z,15.20
2023-02-15T14:57:19.502Z,15.20
2023-02-15T15:02:51.496Z,14.90
2023-02-15T15:08:38.224Z,14.40
2023-02-15T15:14:01.773Z,14.00
2023-02-15T15:19:52.614Z,13.60
2023-02-15T15:25:36.985Z,13.30
2023-02-15T15:31:23.025Z,13.20
2023-02-15T15:37:12.825Z,12.70
2023-02-15T15:43:11.252Z,12.60
2023-02-15T15:48:39.843Z,12.10
2023-02-15T15:54:03.505Z,11.90
2023-02-15T15:59:28.928Z,11.50
2023-02-15T16:04:50.165Z,11.10
2023-02-15T16:10:27.695Z,11.00
2023-02-15T16:15:53.534Z,10.70
2023-02-15T16:21:28.075Z,10.70
2023-02-15T16:27:01.726Z,10.50
2023-02-15T16:32:29.154Z,10.20
2023-02-15T16:37:50.344Z,9.90
2023-02-15T16:43:26.072Z,9.50
2023-02-15T16:48:52.797Z,9.10
2023-02-15T16:54:24.115Z,8.70
2023-02-15T16:59:52.013Z,8.20
2023-02-15T17:05:14.749Z,8.10
2023-02-15T17:10:38.482Z,7.90
2023-02-15T17:16:03.181Z,7.60
2023-02-15T17:21:29.233Z,7.60
2023-02-15T17:27:00.879Z,7.30
2023-02-15T17:32:26.419Z,7.40
2023-02-15T17:37:49.947Z,7.30
2023-02-15T17:43:11.663Z,7.30
2023-02-15T17:48:36.604Z,7.20
2023-02-15T17:54:16.428Z,7.20
2023-02-15T17:59:56.455Z,7.00
2023-02-15T18:05:36.933Z,6.90
2023-02-15T18:11:17.562Z,6.90
2023-02-15T18:16:43.523Z,6.70
2023-02-15T18:22:15.663Z,6.60
2023-02-15T18:27:37.215Z,6.30
2023-02-15T18:32:59.770Z,6.20
2023-02-15T18:38:22.318Z,6.10
2023-02-15T18:43:43.900Z,5.90
2023-02-15T18:49:05.362Z,5.90
2023-02-15T18:54:27.076Z,5.70
2023-02-15T18:59:51.812Z,5.70
2023-02-15T19:05:13.912Z,5.60
2023-02-15T19:10:36.815Z,5.40
2023-02-15T19:15:59.032Z,5.30
2023-02-15T19:21:20.366Z,5.20
2023-02-15T19:26:45.979Z,5.20
2023-02-15T19:32:09.974Z,5.00
2023-02-15T19:37:42.759Z,4.90
2023-02-15T19:43:10.485Z,4.90
2023-02-15T19:48:31.823Z,4.70
2023-02-15T19:53:53.166Z,4.60
2023-02-15T19:59:25.039Z,4.40
2023-02-15T20:04:46.750Z,4.20
2023-02-15T20:10:15.746Z,4.20
2023-02-15T20:15:37.744Z,4.10
2023-02-15T20:21:00.689Z,3.90
2023-02-15T20:26:29.677Z,3.90
2023-02-15T20:31:55.579Z,3.70
2023-02-15T20:37:24.111Z,3.60
2023-02-15T20:42:45.776Z,3.70
2023-02-15T20:48:07.382Z,3.60
2023-02-15T20:53:29.721Z,3.60
2023-02-15T20:58:52.356Z,3.50
2023-02-15T21:04:34.337Z,3.40
2023-02-15T21:09:55.544Z,3.30
2023-02-15T21:15:33.219Z,3.00
2023-02-15T21:20:57.625Z,3.00
2023-02-15T21:26:21.958Z,2.80
2023-02-15T21:31:43.407Z,3.00
2023-02-15T21:37:05.276Z,2.90
2023-02-15T21:43:01.388Z,3.00
2023-02-15T21:48:22.840Z,3.20
2023-02-15T21:53:46.336Z,3.40
2023-02-15T21:59:15.248Z,3.30
2023-02-15T22:04:36.764Z,3.20
2023-02-15T22:09:58.292Z,3.20
2023-02-15T22:15:24.943Z,2.90
2023-02-15T22:20:46.774Z,2.80
2023-02-15T22:26:13.544Z,2.90
2023-02-15T22:31:35.005Z,3.10
2023-02-15T22:36:57.589Z,3.10
2023-02-15T22:42:27.927Z,3.00
2023-02-15T22:47:52.124Z,2.90
2023-02-15T22:53:13.679Z,2.90
2023-02-15T22:58:35.412Z,2.90
2023-02-15T23:03:57.165Z,2.70
2023-02-15T23:09:18.787Z,2.50
2023-02-15T23:14:40.274Z,2.20
2023-02-15T23:20:01.822Z,2.30
2023-02-15T23:25:25.338Z,2.30
2023-02-15T23:30:47.934Z,2.10
2023-02-15T23:36:26.502Z,2.10
2023-02-15T23:41:48.009Z,2.20
2023-02-15T23:47:45.452Z,2.10
2023-02-15T23:53:07.051Z,1.90
2023-02-15T23:58:35.405Z,2.10
